Time;durP1;ratioP1;P1;durP2;ratioP2;P2;SDS_P1;SDS_P2;PMS_P1;PMS_P2;Temp;Humidity;BMP_temperature;BMP_pressure;BME280_temperature;BME280_humidity;BME280_pressure;Samples;Min_cycle;Max_cycle;Signal;HPM_P1;HPM_P2
2022/11/27 00:00:11;;;;;;;0.90;0.90;;;;;;;;;;6370431;22;20169;-76
2022/11/27 00:02:37;;;;;;;0.90;0.90;;;;;;;;;;6368780;22;20252;-77
2022/11/27 00:05:03;;;;;;;0.90;0.90;;;;;;;;;;6369542;22;20184;-76
2022/11/27 00:07:29;;;;;;;0.90;0.90;;;;;;;;;;6370087;22;20192;-77
2022/11/27 00:09:55;;;;;;;0.90;0.90;;;;;;;;;;6370183;22;20217;-77
2022/11/27 00:12:21;;;;;;;0.93;0.93;;;;;;;;;;6369485;22;20649;-77
2022/11/27 00:14:48;;;;;;;0.80;0.80;;;;;;;;;;6370550;22;20144;-76
2022/11/27 00:17:14;;;;;;;0.90;0.90;;;;;;;;;;6371138;22;20171;-77
2022/11/27 00:19:40;;;;;;;1.00;1.00;;;;;;;;;;6371596;22;20579;-76
2022/11/27 00:22:06;;;;;;;1.00;1.00;;;;;;;;;;6370478;22;20191;-76
2022/11/27 00:24:32;;;;;;;0.90;0.90;;;;;;;;;;6370609;22;20148;-76
2022/11/27 00:26:58;;;;;;;1.10;1.10;;;;;;;;;;6370370;22;20148;-75
2022/11/27 00:29:27;;;;;;;0.90;0.90;;;;;;;;;;6370166;22;20154;-76
2022/11/27 00:31:54;;;;;;;0.90;0.90;;;;;;;;;;6370171;22;20151;-76
2022/11/27 00:34:20;;;;;;;1.00;1.00;;;;;;;;;;6369488;22;20206;-76
2022/11/27 00:36:46;;;;;;;1.20;1.10;;;;;;;;;;6369862;22;20443;-76
2022/11/27 00:39:12;;;;;;;1.03;1.03;;;;;;;;;;6369618;22;20158;-76
2022/11/27 00:41:38;;;;;;;1.07;1.07;;;;;;;;;;6369545;22;20217;-76
2022/11/27 00:44:04;;;;;;;1.20;1.20;;;;;;;;;;6368831;22;20187;-75
2022/11/27 00:46:31;;;;;;;1.10;1.10;;;;;;;;;;6369551;22;20136;-76
2022/11/27 00:48:57;;;;;;;1.00;1.00;;;;;;;;;;6369603;22;20148;-77
2022/11/27 00:51:24;;;;;;;0.90;0.90;;;;;;;;;;6369355;22;20152;-75
2022/11/27 00:53:50;;;;;;;0.90;0.90;;;;;;;;;;6368735;22;20180;-75
2022/11/27 00:56:17;;;;;;;1.00;1.00;;;;;;;;;;6369063;22;20479;-76
2022/11/27 00:58:44;;;;;;;0.97;0.97;;;;;;;;;;6369316;22;20155;-76
2022/11/27 01:01:15;;;;;;;1.60;1.50;;;;;;;;;;6369195;22;20214;-76
2022/11/27 01:03:41;;;;;;;1.30;1.20;;;;;;;;;;6368634;22;20163;-76
2022/11/27 01:06:07;;;;;;;1.60;1.50;;;;;;;;;;6368870;22;20484;-75
2022/11/27 01:08:34;;;;;;;1.57;1.47;;;;;;;;;;6369137;22;20158;-76
2022/11/27 01:11:00;;;;;;;1.30;1.20;;;;;;;;;;6369086;22;20156;-76
2022/11/27 01:13:27;;;;;;;1.10;1.10;;;;;;;;;;6368556;22;20178;-78
2022/11/27 01:16:04;;;;;;;0.93;0.93;;;;;;;;;;6369491;22;20158;-75
2022/11/27 01:18:30;;;;;;;1.03;1.03;;;;;;;;;;6369087;22;20201;-76
2022/11/27 01:20:56;;;;;;;1.90;1.80;;;;;;;;;;6369007;22;20191;-76
2022/11/27 01:23:22;;;;;;;1.10;1.10;;;;;;;;;;6368411;22;20168;-77
2022/11/27 01:25:48;;;;;;;1.23;1.20;;;;;;;;;;6369151;22;20175;-76
2022/11/27 01:28:15;;;;;;;2.30;2.10;;;;;;;;;;6369554;22;20140;-76
2022/11/27 01:30:41;;;;;;;1.03;1.03;;;;;;;;;;6369024;22;20155;-75
2022/11/27 01:33:07;;;;;;;1.20;1.10;;;;;;;;;;6368256;22;20551;-76
2022/11/27 01:35:33;;;;;;;1.40;1.30;;;;;;;;;;6368875;22;20163;-76
2022/11/27 01:37:59;;;;;;;1.07;1.07;;;;;;;;;;6369014;22;20203;-76
2022/11/27 01:40:25;;;;;;;1.70;1.60;;;;;;;;;;6368530;22;20201;-76
2022/11/27 01:42:51;;;;;;;1.30;1.20;;;;;;;;;;6368241;22;20179;-76
2022/11/27 01:45:19;;;;;;;1.20;1.20;;;;;;;;;;6368365;22;20246;-75
2022/11/27 01:47:47;;;;;;;1.80;1.70;;;;;;;;;;6368782;22;20154;-75
2022/11/27 01:50:16;;;;;;;1.70;1.60;;;;;;;;;;6368924;22;20205;-76
2022/11/27 01:52:46;;;;;;;1.20;1.10;;;;;;;;;;6368098;22;20175;-75
2022/11/27 01:55:32;;;;;;;1.97;1.87;;;;;;;;;;6369249;22;20151;-76
2022/11/27 01:58:00;;;;;;;1.00;1.00;;;;;;;;;;6368156;22;20651;-75
2022/11/27 02:00:27;;;;;;;1.40;1.30;;;;;;;;;;6368293;22;20231;-76
2022/11/27 02:02:53;;;;;;;0.97;0.97;;;;;;;;;;6368116;22;20215;-76
2022/11/27 02:05:21;;;;;;;1.30;1.20;;;;;;;;;;6368555;22;20555;-76
2022/11/27 02:07:47;;;;;;;1.37;1.27;;;;;;;;;;6368895;22;20166;-76
2022/11/27 02:10:14;;;;;;;1.10;1.10;;;;;;;;;;6368914;22;20493;-75
2022/11/27 02:12:47;;;;;;;1.00;1.00;;;;;;;;;;6367995;22;20289;-75
2022/11/27 02:15:20;;;;;;;1.40;1.30;;;;;;;;;;6368764;22;20223;-76
2022/11/27 02:18:04;;;;;;;1.57;1.47;;;;;;;;;;6368556;22;20148;-75
2022/11/27 02:23:43;;;;;;;1.00;1.00;;;;;;;;;;6365495;22;20183;-75
2022/11/27 02:26:17;;;;;;;1.37;1.27;;;;;;;;;;6370053;22;20162;-75
2022/11/27 02:28:58;;;;;;;1.20;1.10;;;;;;;;;;6369460;22;20229;-76
2022/11/27 02:31:45;;;;;;;1.23;1.13;;;;;;;;;;6368883;22;20601;-75
2022/11/27 02:34:17;;;;;;;1.00;1.00;;;;;;;;;;6347671;22;20179;-75
2022/11/27 02:36:48;;;;;;;1.10;1.10;;;;;;;;;;6370284;22;20156;-75
2022/11/27 02:39:16;;;;;;;1.10;1.10;;;;;;;;;;6369999;22;20231;-75
2022/11/27 02:41:48;;;;;;;0.90;0.90;;;;;;;;;;6370154;22;20260;-76
2022/11/27 02:44:15;;;;;;;0.80;0.80;;;;;;;;;;6369821;22;20184;-75
2022/11/27 02:46:42;;;;;;;1.17;1.17;;;;;;;;;;6370837;22;20152;-75
2022/11/27 02:49:12;;;;;;;1.10;1.10;;;;;;;;;;6370714;22;20210;-75
2022/11/27 02:51:42;;;;;;;1.37;1.27;;;;;;;;;;6370385;22;20154;-76
2022/11/27 02:54:11;;;;;;;1.30;1.20;;;;;;;;;;6370959;22;20171;-77
2022/11/27 02:56:39;;;;;;;1.13;1.10;;;;;;;;;;6369646;22;20148;-76
2022/11/27 02:59:07;;;;;;;1.50;1.40;;;;;;;;;;6369509;22;20148;-76
2022/11/27 03:01:36;;;;;;;1.90;1.80;;;;;;;;;;6369359;22;20194;-76
2022/11/27 03:04:06;;;;;;;2.40;2.20;;;;;;;;;;6368667;22;20171;-77
2022/11/27 03:06:43;;;;;;;1.20;1.20;;;;;;;;;;6368802;22;20235;-76
2022/11/27 03:09:18;;;;;;;1.40;1.30;;;;;;;;;;6368956;22;20679;-77
2022/11/27 03:11:44;;;;;;;1.80;1.70;;;;;;;;;;6369138;22;20152;-76
2022/11/27 03:14:11;;;;;;;1.30;1.20;;;;;;;;;;6367983;22;20254;-77
2022/11/27 03:16:39;;;;;;;1.37;1.27;;;;;;;;;;6368781;22;20205;-77
2022/11/27 03:19:16;;;;;;;1.20;1.10;;;;;;;;;;6368668;22;20159;-77
2022/11/27 03:21:43;;;;;;;0.90;0.90;;;;;;;;;;6368855;22;20179;-76
2022/11/27 03:24:10;;;;;;;0.90;0.90;;;;;;;;;;6368086;22;20246;-76
2022/11/27 03:26:36;;;;;;;1.00;1.00;;;;;;;;;;6368748;22;20156;-76
2022/11/27 03:29:03;;;;;;;0.80;0.80;;;;;;;;;;6368420;22;20151;-76
2022/11/27 03:31:29;;;;;;;0.90;0.90;;;;;;;;;;6368691;22;20155;-77
2022/11/27 03:33:56;;;;;;;0.90;0.90;;;;;;;;;;6367858;22;20198;-77
2022/11/27 03:36:22;;;;;;;0.93;0.93;;;;;;;;;;6370069;22;20483;-78
2022/11/27 03:38:49;;;;;;;1.30;1.20;;;;;;;;;;6370395;22;20720;-75
2022/11/27 03:41:33;;;;;;;1.40;1.30;;;;;;;;;;6370097;22;20526;-76
2022/11/27 03:44:07;;;;;;;1.00;1.00;;;;;;;;;;6369350;22;20179;-76
2022/11/27 03:46:39;;;;;;;1.17;1.13;;;;;;;;;;6370350;22;20175;-76
2022/11/27 03:49:10;;;;;;;2.87;2.67;;;;;;;;;;6370185;22;20144;-76
2022/11/27 03:51:40;;;;;;;1.40;1.30;;;;;;;;;;6370369;22;20147;-77
2022/11/27 03:54:14;;;;;;;1.40;1.30;;;;;;;;;;6369453;22;20213;-76
2022/11/27 03:56:47;;;;;;;1.33;1.23;;;;;;;;;;6370261;22;20151;-77
2022/11/27 03:59:22;;;;;;;1.37;1.27;;;;;;;;;;6370430;22;20223;-77
2022/11/27 04:01:48;;;;;;;1.00;1.00;;;;;;;;;;6369595;22;20501;-76
2022/11/27 04:04:14;;;;;;;1.50;1.40;;;;;;;;;;6368940;22;20634;-77
2022/11/27 04:06:40;;;;;;;1.00;1.00;;;;;;;;;;6369705;22;20152;-76
2022/11/27 04:09:06;;;;;;;0.90;0.90;;;;;;;;;;6369841;22;20179;-76
2022/11/27 04:11:32;;;;;;;1.40;1.30;;;;;;;;;;6369900;22;20178;-76
2022/11/27 04:13:58;;;;;;;1.07;1.07;;;;;;;;;;6368758;22;20176;-76
2022/11/27 04:16:24;;;;;;;1.50;1.40;;;;;;;;;;6369849;22;20222;-76
2022/11/27 04:18:50;;;;;;;1.47;1.37;;;;;;;;;;6369685;22;20148;-76
2022/11/27 04:21:16;;;;;;;1.40;1.30;;;;;;;;;;6369931;22;20179;-76
2022/11/27 04:23:43;;;;;;;1.07;1.07;;;;;;;;;;6369281;22;20621;-77
2022/11/27 04:26:09;;;;;;;1.20;1.20;;;;;;;;;;6369792;22;20140;-77
2022/11/27 04:28:35;;;;;;;1.10;1.10;;;;;;;;;;6369950;22;20148;-76
2022/11/27 04:31:01;;;;;;;1.23;1.23;;;;;;;;;;6369823;22;20144;-76
2022/11/27 04:33:27;;;;;;;1.30;1.20;;;;;;;;;;6368593;22;20555;-77
2022/11/27 04:35:53;;;;;;;1.00;1.00;;;;;;;;;;6369687;22;20230;-76
2022/11/27 04:38:20;;;;;;;0.90;0.90;;;;;;;;;;6369588;22;20172;-77
2022/11/27 04:40:46;;;;;;;1.03;1.03;;;;;;;;;;6369524;22;20147;-76
2022/11/27 04:43:12;;;;;;;1.00;1.00;;;;;;;;;;6368795;22;20182;-76
2022/11/27 04:45:38;;;;;;;0.93;0.93;;;;;;;;;;6369160;22;20497;-77
2022/11/27 04:48:05;;;;;;;1.40;1.30;;;;;;;;;;6369555;22;20151;-76
2022/11/27 04:50:31;;;;;;;1.00;1.00;;;;;;;;;;6369467;22;20159;-76
2022/11/27 04:52:57;;;;;;;1.00;1.00;;;;;;;;;;6368593;22;20168;-77
2022/11/27 04:55:23;;;;;;;1.10;1.10;;;;;;;;;;6369329;22;20274;-76
2022/11/27 04:57:49;;;;;;;1.00;1.00;;;;;;;;;;6369534;22;20147;-76
2022/11/27 05:00:15;;;;;;;0.90;0.90;;;;;;;;;;6369441;22;20438;-77
2022/11/27 05:02:41;;;;;;;1.20;1.10;;;;;;;;;;6368613;22;20270;-76
2022/11/27 05:05:07;;;;;;;1.30;1.20;;;;;;;;;;6369424;22;20178;-76
2022/11/27 05:07:33;;;;;;;1.27;1.20;;;;;;;;;;6368891;22;20499;-76
2022/11/27 05:09:59;;;;;;;0.90;0.90;;;;;;;;;;6369455;22;20140;-76
2022/11/27 05:12:25;;;;;;;0.90;0.90;;;;;;;;;;6368513;22;20562;-77
2022/11/27 05:14:51;;;;;;;1.00;1.00;;;;;;;;;;6369354;22;20164;-77
2022/11/27 05:17:17;;;;;;;1.00;1.00;;;;;;;;;;6369189;22;20526;-76
2022/11/27 05:19:43;;;;;;;0.90;0.90;;;;;;;;;;6368869;22;20172;-76
2022/11/27 05:22:09;;;;;;;1.00;1.00;;;;;;;;;;6367956;22;20175;-77
2022/11/27 05:24:35;;;;;;;1.00;1.00;;;;;;;;;;6369053;22;20212;-76
2022/11/27 05:27:01;;;;;;;0.80;0.80;;;;;;;;;;6368672;22;20159;-76
2022/11/27 05:29:27;;;;;;;1.40;1.30;;;;;;;;;;6368993;22;20231;-76
2022/11/27 05:31:53;;;;;;;1.00;1.00;;;;;;;;;;6369144;22;20152;-76
2022/11/27 05:34:19;;;;;;;0.90;0.90;;;;;;;;;;6368561;22;20508;-77
2022/11/27 05:36:45;;;;;;;1.00;1.00;;;;;;;;;;6369085;22;20488;-76
2022/11/27 05:39:11;;;;;;;1.00;1.00;;;;;;;;;;6369015;22;20196;-76
2022/11/27 05:41:38;;;;;;;1.00;1.00;;;;;;;;;;6368834;22;20179;-77
2022/11/27 05:44:04;;;;;;;1.00;1.00;;;;;;;;;;6368153;22;20190;-76
2022/11/27 05:46:30;;;;;;;1.30;1.20;;;;;;;;;;6368928;22;20161;-76
2022/11/27 05:48:56;;;;;;;1.00;1.00;;;;;;;;;;6368893;22;20152;-76
2022/11/27 05:51:22;;;;;;;1.03;1.03;;;;;;;;;;6368940;22;20159;-77
2022/11/27 05:53:48;;;;;;;1.00;1.00;;;;;;;;;;6368086;22;20164;-76
2022/11/27 05:56:16;;;;;;;0.90;0.90;;;;;;;;;;6368904;22;20151;-77
2022/11/27 05:58:43;;;;;;;0.90;0.90;;;;;;;;;;6368586;22;20148;-76
2022/11/27 06:01:09;;;;;;;1.00;1.00;;;;;;;;;;6368765;22;20180;-77
2022/11/27 06:03:37;;;;;;;0.90;0.90;;;;;;;;;;6367979;22;20172;-76
2022/11/27 06:06:14;;;;;;;1.30;1.20;;;;;;;;;;6368814;22;20148;-77
2022/11/27 06:08:40;;;;;;;1.30;1.20;;;;;;;;;;6368726;22;20217;-76
2022/11/27 06:11:10;;;;;;;0.90;0.90;;;;;;;;;;6368741;22;20148;-76
2022/11/27 06:13:36;;;;;;;0.90;0.90;;;;;;;;;;6368128;22;20167;-76
2022/11/27 06:16:06;;;;;;;0.90;0.90;;;;;;;;;;6368391;22;20148;-76
2022/11/27 06:18:32;;;;;;;0.90;0.90;;;;;;;;;;6368741;22;20148;-76
2022/11/27 06:20:58;;;;;;;1.07;1.07;;;;;;;;;;6368444;22;20262;-76
2022/11/27 06:23:24;;;;;;;0.90;0.90;;;;;;;;;;6367913;22;20168;-76
2022/11/27 06:25:50;;;;;;;0.93;0.93;;;;;;;;;;6368642;22;20160;-76
2022/11/27 06:28:16;;;;;;;0.90;0.90;;;;;;;;;;6368584;22;20151;-76
2022/11/27 06:30:42;;;;;;;0.90;0.90;;;;;;;;;;6368590;22;20185;-75
2022/11/27 06:33:07;;;;;;;0.90;0.90;;;;;;;;;;6367968;22;20618;-76
2022/11/27 06:35:33;;;;;;;0.90;0.90;;;;;;;;;;6368371;22;20225;-76
2022/11/27 06:37:59;;;;;;;0.93;0.93;;;;;;;;;;6368449;22;20184;-76
2022/11/27 06:40:25;;;;;;;0.90;0.90;;;;;;;;;;6368455;22;20147;-76
2022/11/27 06:42:51;;;;;;;0.90;0.90;;;;;;;;;;6367666;22;20195;-75
2022/11/27 06:45:17;;;;;;;0.90;0.90;;;;;;;;;;6368426;22;20246;-76
2022/11/27 06:47:44;;;;;;;0.90;0.90;;;;;;;;;;6368558;22;20163;-76
2022/11/27 06:50:10;;;;;;;0.90;0.90;;;;;;;;;;6368518;22;20148;-75
2022/11/27 06:52:36;;;;;;;1.00;1.00;;;;;;;;;;6367230;22;20187;-76
2022/11/27 06:55:02;;;;;;;0.90;0.90;;;;;;;;;;6368292;22;20182;-76
2022/11/27 06:57:28;;;;;;;0.90;0.90;;;;;;;;;;6368163;22;20486;-76
2022/11/27 06:59:54;;;;;;;0.80;0.80;;;;;;;;;;6368373;22;20159;-75
2022/11/27 07:02:20;;;;;;;1.00;1.00;;;;;;;;;;6367675;22;21241;-76
2022/11/27 07:04:45;;;;;;;0.90;0.90;;;;;;;;;;6368395;22;20456;-76
2022/11/27 07:07:12;;;;;;;0.90;0.90;;;;;;;;;;6368976;22;20250;-75
2022/11/27 07:09:37;;;;;;;1.00;1.00;;;;;;;;;;6368947;22;20155;-76
2022/11/27 07:12:05;;;;;;;0.90;0.90;;;;;;;;;;6369673;22;20246;-76
2022/11/27 07:14:31;;;;;;;0.90;0.90;;;;;;;;;;6370111;22;20566;-76
2022/11/27 07:16:57;;;;;;;0.90;0.90;;;;;;;;;;6370344;22;20192;-75
2022/11/27 07:19:23;;;;;;;0.80;0.80;;;;;;;;;;6370438;22;20176;-76
2022/11/27 07:21:49;;;;;;;0.90;0.90;;;;;;;;;;6370277;22;20188;-75
2022/11/27 07:24:14;;;;;;;0.97;0.97;;;;;;;;;;6369550;22;20164;-75
2022/11/27 07:26:40;;;;;;;0.80;0.80;;;;;;;;;;6370335;22;20597;-76
2022/11/27 07:29:06;;;;;;;0.90;0.90;;;;;;;;;;6369957;22;20574;-76
2022/11/27 07:31:32;;;;;;;0.80;0.80;;;;;;;;;;6370181;22;20151;-76
2022/11/27 07:33:59;;;;;;;0.70;0.70;;;;;;;;;;6369104;22;20394;-76
2022/11/27 07:36:27;;;;;;;0.80;0.80;;;;;;;;;;6370116;22;20609;-76
2022/11/27 07:38:53;;;;;;;0.60;0.60;;;;;;;;;;6370186;22;20144;-75
2022/11/27 07:41:19;;;;;;;0.70;0.70;;;;;;;;;;6370211;22;20191;-76
2022/11/27 07:43:45;;;;;;;0.70;0.70;;;;;;;;;;6368832;22;20179;-76
2022/11/27 07:46:13;;;;;;;0.70;0.70;;;;;;;;;;6370201;22;20188;-75
2022/11/27 07:48:39;;;;;;;0.60;0.60;;;;;;;;;;6370203;22;20144;-76
2022/11/27 07:51:05;;;;;;;0.60;0.60;;;;;;;;;;6370436;22;20159;-76
2022/11/27 07:53:31;;;;;;;0.67;0.67;;;;;;;;;;6369391;22;20175;-76
2022/11/27 07:56:00;;;;;;;0.60;0.60;;;;;;;;;;6368418;22;20155;-76
2022/11/27 07:58:26;;;;;;;0.77;0.77;;;;;;;;;;6370716;22;20158;-75
2022/11/27 08:00:52;;;;;;;0.70;0.70;;;;;;;;;;6369454;22;20231;-76
2022/11/27 08:03:18;;;;;;;0.70;0.70;;;;;;;;;;6369411;22;20178;-75
2022/11/27 08:05:44;;;;;;;0.70;0.70;;;;;;;;;;6370105;22;20704;-76
2022/11/27 08:08:10;;;;;;;1.07;1.07;;;;;;;;;;6370165;22;20144;-77
2022/11/27 08:10:37;;;;;;;0.90;0.90;;;;;;;;;;6370093;22;20150;-77
2022/11/27 08:13:03;;;;;;;0.83;0.83;;;;;;;;;;6369224;22;20175;-77
2022/11/27 08:15:29;;;;;;;0.83;0.83;;;;;;;;;;6369830;22;20144;-76
2022/11/27 08:17:55;;;;;;;0.90;0.90;;;;;;;;;;6369518;22;20236;-76
2022/11/27 08:20:21;;;;;;;1.10;1.10;;;;;;;;;;6369725;22;20147;-76
2022/11/27 08:22:47;;;;;;;0.90;0.90;;;;;;;;;;6368738;22;20188;-75
2022/11/27 08:25:13;;;;;;;0.90;0.90;;;;;;;;;;6369763;22;20144;-76
2022/11/27 08:27:39;;;;;;;0.97;0.97;;;;;;;;;;6369938;22;20167;-76
2022/11/27 08:30:06;;;;;;;1.00;1.00;;;;;;;;;;6369746;22;20160;-76
2022/11/27 08:32:32;;;;;;;1.90;1.80;;;;;;;;;;6368978;22;20168;-75
2022/11/27 08:34:58;;;;;;;1.00;1.00;;;;;;;;;;6369480;22;20526;-78
2022/11/27 08:37:24;;;;;;;1.60;1.50;;;;;;;;;;6369500;22;20148;-76
2022/11/27 08:39:50;;;;;;;1.57;1.47;;;;;;;;;;6369727;22;20617;-75
2022/11/27 08:42:16;;;;;;;1.77;1.67;;;;;;;;;;6368797;22;20187;-75
2022/11/27 08:44:42;;;;;;;1.50;1.40;;;;;;;;;;6368834;22;20249;-75
2022/11/27 08:47:08;;;;;;;1.40;1.30;;;;;;;;;;6286145;22;20206;-77
2022/11/27 08:49:34;;;;;;;1.50;1.40;;;;;;;;;;6217473;23;20161;-77
2022/11/27 08:52:00;;;;;;;1.43;1.33;;;;;;;;;;6221150;23;20308;-76
2022/11/27 08:54:26;;;;;;;1.40;1.30;;;;;;;;;;6225145;23;20166;-79
2022/11/27 08:56:52;;;;;;;1.47;1.37;;;;;;;;;;6222814;23;20167;-79
2022/11/27 08:59:18;;;;;;;1.50;1.40;;;;;;;;;;6227636;23;20159;-78
2022/11/27 09:01:44;;;;;;;1.13;1.13;;;;;;;;;;6222529;23;20514;-77
2022/11/27 09:04:10;;;;;;;1.30;1.20;;;;;;;;;;6213299;23;20231;-76
2022/11/27 09:06:36;;;;;;;1.10;1.10;;;;;;;;;;6215064;23;20151;-77
2022/11/27 09:09:05;;;;;;;1.40;1.30;;;;;;;;;;6215904;23;20151;-77
2022/11/27 09:11:31;;;;;;;1.13;1.10;;;;;;;;;;6212806;23;20645;-77
2022/11/27 09:14:01;;;;;;;1.30;1.20;;;;;;;;;;6213998;23;20164;-77
2022/11/27 09:16:28;;;;;;;1.00;1.00;;;;;;;;;;6211623;23;20159;-76
2022/11/27 09:18:55;;;;;;;0.90;0.90;;;;;;;;;;6213796;22;20620;-78
2022/11/27 09:21:22;;;;;;;0.90;0.90;;;;;;;;;;6211246;22;20198;-77
2022/11/27 09:23:51;;;;;;;1.30;1.20;;;;;;;;;;6209639;23;20171;-76
2022/11/27 09:26:17;;;;;;;0.80;0.80;;;;;;;;;;6210114;23;20159;-76
2022/11/27 09:28:45;;;;;;;1.00;1.00;;;;;;;;;;6210960;23;20151;-77
2022/11/27 09:31:13;;;;;;;0.90;0.90;;;;;;;;;;6210252;23;20154;-78
2022/11/27 09:33:40;;;;;;;1.00;1.00;;;;;;;;;;6208612;23;20172;-78
2022/11/27 09:36:06;;;;;;;1.00;1.00;;;;;;;;;;6210358;23;20178;-77
2022/11/27 09:38:33;;;;;;;0.70;0.70;;;;;;;;;;6210441;23;20155;-77
2022/11/27 09:41:19;;;;;;;0.80;0.80;;;;;;;;;;6210072;23;20585;-76
2022/11/27 09:43:51;;;;;;;0.80;0.80;;;;;;;;;;6213874;23;20167;-76
2022/11/27 09:46:25;;;;;;;0.80;0.80;;;;;;;;;;6210259;23;20179;-76
2022/11/27 09:48:51;;;;;;;0.80;0.80;;;;;;;;;;6209835;22;20151;-76
2022/11/27 09:51:27;;;;;;;0.80;0.80;;;;;;;;;;6210875;23;20284;-77
2022/11/27 09:54:07;;;;;;;0.80;0.80;;;;;;;;;;6209582;23;20179;-76
2022/11/27 09:56:35;;;;;;;0.60;0.60;;;;;;;;;;6210088;23;20143;-77
2022/11/27 09:59:02;;;;;;;0.70;0.70;;;;;;;;;;6210679;23;20151;-77
2022/11/27 10:01:29;;;;;;;0.80;0.80;;;;;;;;;;6211555;23;20175;-78
2022/11/27 10:03:55;;;;;;;0.70;0.70;;;;;;;;;;6215913;23;20171;-76
2022/11/27 10:06:32;;;;;;;0.80;0.80;;;;;;;;;;6214967;23;20155;-76
2022/11/27 10:08:58;;;;;;;0.70;0.70;;;;;;;;;;6214135;23;20222;-77
2022/11/27 10:11:30;;;;;;;0.70;0.70;;;;;;;;;;6209436;23;20614;-77
2022/11/27 10:14:01;;;;;;;0.70;0.70;;;;;;;;;;6210841;23;20178;-77
2022/11/27 10:16:30;;;;;;;0.60;0.60;;;;;;;;;;6213814;23;20624;-78
2022/11/27 10:19:16;;;;;;;0.50;0.50;;;;;;;;;;6214726;23;20244;-77
2022/11/27 10:21:46;;;;;;;0.40;0.40;;;;;;;;;;6212541;23;20262;-77
2022/11/27 10:24:23;;;;;;;0.60;0.60;;;;;;;;;;6206838;23;20171;-78
2022/11/27 10:26:52;;;;;;;0.70;0.70;;;;;;;;;;6215860;23;20139;-78
2022/11/27 10:29:39;;;;;;;0.47;0.47;;;;;;;;;;6213371;23;20171;-77
2022/11/27 10:32:12;;;;;;;0.60;0.60;;;;;;;;;;6209683;23;20562;-76
2022/11/27 10:34:41;;;;;;;0.70;0.70;;;;;;;;;;6209619;23;20155;-77
2022/11/27 10:37:13;;;;;;;0.53;0.53;;;;;;;;;;6209817;23;20151;-76
2022/11/27 10:39:42;;;;;;;0.60;0.60;;;;;;;;;;6210192;22;20474;-76
2022/11/27 10:42:10;;;;;;;0.60;0.60;;;;;;;;;;6209205;23;20186;-77
2022/11/27 10:44:42;;;;;;;0.63;0.63;;;;;;;;;;6211933;23;20586;-75
2022/11/27 10:47:10;;;;;;;0.60;0.60;;;;;;;;;;6212803;23;20187;-78
2022/11/27 10:49:38;;;;;;;0.70;0.70;;;;;;;;;;6212565;23;20155;-76
2022/11/27 10:52:04;;;;;;;0.60;0.60;;;;;;;;;;6209647;23;20191;-74
2022/11/27 10:54:33;;;;;;;0.50;0.50;;;;;;;;;;6211672;23;20238;-74
2022/11/27 10:57:21;;;;;;;0.50;0.50;;;;;;;;;;6212110;23;20158;-75
2022/11/27 11:00:00;;;;;;;0.60;0.60;;;;;;;;;;6212158;23;20151;-75
2022/11/27 11:02:29;;;;;;;0.50;0.50;;;;;;;;;;6211522;22;20195;-74
2022/11/27 11:04:55;;;;;;;0.60;0.60;;;;;;;;;;6212315;23;20147;-75
2022/11/27 11:07:24;;;;;;;0.47;0.47;;;;;;;;;;6211921;23;20163;-75
2022/11/27 11:09:50;;;;;;;0.50;0.50;;;;;;;;;;6212222;23;20182;-75
2022/11/27 11:12:20;;;;;;;0.50;0.50;;;;;;;;;;6211098;23;20155;-75
2022/11/27 11:14:50;;;;;;;0.60;0.60;;;;;;;;;;6212300;23;20151;-76
2022/11/27 11:17:17;;;;;;;0.60;0.60;;;;;;;;;;6211816;23;20493;-76
2022/11/27 11:19:44;;;;;;;0.53;0.53;;;;;;;;;;6212298;22;20196;-75
2022/11/27 11:22:17;;;;;;;0.50;0.50;;;;;;;;;;6210646;23;20179;-77
2022/11/27 11:24:47;;;;;;;0.57;0.57;;;;;;;;;;6210826;23;20208;-78
2022/11/27 11:27:31;;;;;;;0.50;0.50;;;;;;;;;;6212914;23;20156;-77
2022/11/27 11:29:59;;;;;;;0.60;0.60;;;;;;;;;;6213095;22;20161;-79
2022/11/27 11:32:27;;;;;;;0.60;0.60;;;;;;;;;;6213072;23;20175;-76
2022/11/27 11:34:55;;;;;;;0.60;0.60;;;;;;;;;;6213282;23;20602;-80
2022/11/27 11:37:28;;;;;;;0.50;0.50;;;;;;;;;;6214317;22;20749;-78
2022/11/27 11:39:56;;;;;;;0.50;0.50;;;;;;;;;;6211954;23;20181;-76
2022/11/27 11:42:23;;;;;;;0.40;0.40;;;;;;;;;;6212296;23;20258;-78
2022/11/27 11:44:51;;;;;;;0.50;0.50;;;;;;;;;;6212704;23;20478;-78
2022/11/27 11:47:18;;;;;;;0.40;0.40;;;;;;;;;;6211858;23;20171;-77
2022/11/27 11:49:45;;;;;;;0.50;0.50;;;;;;;;;;6212286;23;20426;-79
2022/11/27 11:52:20;;;;;;;0.63;0.63;;;;;;;;;;6214667;23;20159;-78
2022/11/27 11:55:05;;;;;;;0.50;0.50;;;;;;;;;;6214181;22;20154;-78
2022/11/27 11:57:49;;;;;;;0.60;0.60;;;;;;;;;;6209407;22;20622;-79
2022/11/27 12:00:16;;;;;;;0.50;0.50;;;;;;;;;;6211965;22;20537;-79
2022/11/27 12:02:48;;;;;;;0.60;0.60;;;;;;;;;;6214256;22;20219;-78
2022/11/27 12:05:33;;;;;;;0.57;0.57;;;;;;;;;;6211675;23;20242;-78
2022/11/27 12:08:18;;;;;;;0.60;0.60;;;;;;;;;;6217732;22;20254;-80
2022/11/27 12:10:51;;;;;;;0.50;0.50;;;;;;;;;;6218811;22;20156;-77
2022/11/27 12:13:19;;;;;;;0.40;0.40;;;;;;;;;;6211628;23;20175;-76
2022/11/27 12:15:51;;;;;;;0.50;0.50;;;;;;;;;;6213444;22;20466;-77
2022/11/27 12:18:36;;;;;;;0.30;0.30;;;;;;;;;;6220941;22;20159;-79
2022/11/27 12:21:15;;;;;;;0.50;0.50;;;;;;;;;;6218774;23;20151;-78
2022/11/27 12:23:48;;;;;;;0.50;0.50;;;;;;;;;;6220505;22;20170;-79
2022/11/27 12:26:39;;;;;;;0.40;0.40;;;;;;;;;;6228081;23;20219;-78
2022/11/27 12:29:14;;;;;;;0.40;0.40;;;;;;;;;;6211666;23;20148;-78
2022/11/27 12:31:55;;;;;;;0.43;0.43;;;;;;;;;;6212143;23;20146;-79
2022/11/27 12:34:39;;;;;;;0.40;0.40;;;;;;;;;;6214641;23;20495;-79
2022/11/27 12:37:08;;;;;;;0.50;0.50;;;;;;;;;;6221195;23;20155;-79
2022/11/27 12:39:34;;;;;;;0.50;0.50;;;;;;;;;;6214636;23;20239;-80
2022/11/27 12:42:05;;;;;;;0.50;0.50;;;;;;;;;;6216518;23;20183;-78
2022/11/27 12:44:37;;;;;;;0.47;0.47;;;;;;;;;;6216885;23;20143;-79
2022/11/27 12:47:06;;;;;;;0.30;0.30;;;;;;;;;;6214909;23;20538;-80
2022/11/27 12:49:44;;;;;;;0.40;0.40;;;;;;;;;;6214800;23;20173;-79
2022/11/27 12:52:13;;;;;;;0.40;0.40;;;;;;;;;;6215950;23;20212;-79
2022/11/27 12:54:45;;;;;;;0.30;0.30;;;;;;;;;;6225323;23;20159;-78
2022/11/27 12:57:14;;;;;;;0.40;0.40;;;;;;;;;;6212772;23;20180;-78
2022/11/27 12:59:48;;;;;;;0.40;0.40;;;;;;;;;;6213923;23;20152;-79
2022/11/27 13:02:22;;;;;;;0.50;0.50;;;;;;;;;;6214640;23;20197;-79
2022/11/27 13:05:37;;;;;;;0.30;0.30;;;9.20;99.90;;;;;;6212415;22;20207;-78
2022/11/27 13:08:12;;;;;;;0.50;0.50;;;;;;;;;;6216874;23;20178;-79
2022/11/27 13:10:44;;;;;;;0.40;0.40;;;;;;;;;;6215039;23;20149;-80
2022/11/27 13:13:29;;;;;;;0.40;0.40;;;;;;;;;;6215490;23;20172;-78
2022/11/27 13:15:57;;;;;;;0.60;0.60;;;;;;;;;;6221168;23;20155;-79
2022/11/27 13:18:37;;;;;;;0.50;0.50;;;;;;;;;;6220554;23;20147;-78
2022/11/27 13:21:14;;;;;;;0.50;0.50;;;;;;;;;;6237124;22;20169;-79
2022/11/27 13:23:40;;;;;;;0.50;0.50;;;;;;;;;;6236359;22;20175;-78
2022/11/27 13:26:14;;;;;;;0.43;0.43;;;;;;;;;;6237264;22;20147;-80
2022/11/27 13:28:43;;;;;;;0.50;0.50;;;;;;;;;;6236830;22;20127;-80
2022/11/27 13:31:14;;;;;;;0.50;0.50;;;;;;;;;;6224089;23;20159;-79
2022/11/27 13:33:41;;;;;;;0.50;0.50;;;;;;;;;;6219103;23;20171;-78
2022/11/27 13:36:18;;;;;;;0.50;0.50;;;;;;;;;;6214607;23;20228;-77
2022/11/27 13:38:45;;;;;;;0.50;0.50;;;;;;;;;;6213745;23;20143;-78
2022/11/27 13:41:19;;;;;;;0.63;0.63;;;;;;;;;;6216089;23;20198;-78
2022/11/27 13:43:47;;;;;;;0.60;0.60;;;;;;;;;;6213362;23;20186;-80
2022/11/27 13:46:23;;;;;;;0.50;0.50;;;;;;;;;;6214082;22;20147;-80
2022/11/27 13:49:04;;;;;;;0.60;0.60;;;;;;;;;;6213230;23;20143;-76
2022/11/27 13:51:35;;;;;;;0.60;0.60;;;;;;;;;;6214705;23;20151;-79
2022/11/27 13:54:11;;;;;;;0.60;0.60;;;;;;;;;;6216249;23;20175;-79
2022/11/27 13:56:37;;;;;;;0.63;0.63;;;;;;;;;;6213119;23;20151;-77
2022/11/27 13:59:14;;;;;;;0.60;0.60;;;;;;;;;;6211455;23;20590;-77
2022/11/27 14:01:52;;;;;;;0.60;0.60;;;;;;;;;;6211293;22;20183;-78
2022/11/27 14:04:18;;;;;;;0.60;0.60;;;;;;;;;;6210544;23;20219;-77
2022/11/27 14:06:50;;;;;;;0.70;0.70;;;;;;;;;;6211226;23;20167;-79
2022/11/27 14:09:16;;;;;;;0.60;0.60;;;;;;;;;;6216600;23;20185;-78
2022/11/27 14:11:44;;;;;;;0.60;0.60;;;;;;;;;;6218200;23;20167;-77
2022/11/27 14:14:19;;;;;;;0.60;0.60;;;;;;;;;;6213255;22;20215;-79
2022/11/27 14:16:56;;;;;;;0.60;0.60;;;;;;;;;;6213135;23;20203;-78
2022/11/27 14:19:22;;;;;;;0.60;0.60;;;;;;;;;;6209613;22;20387;-77
2022/11/27 14:21:48;;;;;;;0.60;0.60;;;;;;;;;;6213722;23;20610;-79
2022/11/27 14:24:23;;;;;;;0.50;0.50;;;;;;;;;;6215447;23;20490;-78
2022/11/27 14:26:49;;;;;;;0.60;0.60;;;;;;;;;;6215886;23;20174;-80
2022/11/27 14:29:15;;;;;;;0.70;0.70;;;;;;;;;;6215550;23;20166;-77
2022/11/27 14:31:42;;;;;;;0.60;0.60;;;;;;;;;;6213776;23;20174;-77
2022/11/27 14:34:44;;;;;;;0.60;0.60;;;;;;;;;;6216315;23;20236;-77
2022/11/27 14:37:24;;;;;;;0.60;0.60;;;;;;;;;;6247977;23;20173;-78
2022/11/27 14:39:51;;;;;;;0.60;0.60;;;;;;;;;;6222657;23;20155;-78
2022/11/27 14:42:21;;;;;;;0.70;0.70;;;;;;;;;;6218526;23;20210;-78
2022/11/27 14:44:47;;;;;;;0.70;0.70;;;;;;;;;;6216700;23;20151;-78
2022/11/27 14:47:19;;;;;;;0.70;0.70;;;;;;;;;;6215440;23;20640;-77
2022/11/27 14:49:45;;;;;;;0.70;0.70;;;;;;;;;;6213947;22;20159;-77
2022/11/27 14:52:14;;;;;;;0.50;0.50;;;;;;;;;;6215835;23;20155;-78
2022/11/27 14:54:40;;;;;;;0.60;0.60;;;;;;;;;;6212292;23;20151;-78
2022/11/27 14:57:07;;;;;;;0.60;0.60;;;;;;;;;;6212994;23;20439;-78